sensor_id;sensor_type;location;lat;lon;timestamp;temperature;humidity
8459;DHT22;4266;48.816;9.154;2023-06-26T00:01:38;20.30;52.30
8459;DHT22;4266;48.816;9.154;2023-06-26T00:04:04;20.20;52.50
8459;DHT22;4266;48.816;9.154;2023-06-26T00:06:30;20.30;52.90
8459;DHT22;4266;48.816;9.154;2023-06-26T00:08:55;20.10;52.70
8459;DHT22;4266;48.816;9.154;2023-06-26T00:11:21;20.00;52.80
8459;DHT22;4266;48.816;9.154;2023-06-26T00:13:47;20.00;53.00
8459;DHT22;4266;48.816;9.154;2023-06-26T00:16:14;20.10;53.20
8459;DHT22;4266;48.816;9.154;2023-06-26T00:18:39;20.10;53.30
8459;DHT22;4266;48.816;9.154;2023-06-26T00:21:05;20.00;53.10
8459;DHT22;4266;48.816;9.154;2023-06-26T00:23:31;20.00;53.40
8459;DHT22;4266;48.816;9.154;2023-06-26T00:25:56;20.00;53.50
8459;DHT22;4266;48.816;9.154;2023-06-26T00:28:22;20.00;53.90
8459;DHT22;4266;48.816;9.154;2023-06-26T00:30:48;19.90;53.70
8459;DHT22;4266;48.816;9.154;2023-06-26T00:33:14;19.90;53.70
8459;DHT22;4266;48.816;9.154;2023-06-26T00:35:40;19.90;53.60
8459;DHT22;4266;48.816;9.154;2023-06-26T00:38:05;19.90;53.70
8459;DHT22;4266;48.816;9.154;2023-06-26T00:40:31;19.80;53.80
8459;DHT22;4266;48.816;9.154;2023-06-26T00:43:04;19.70;54.00
8459;DHT22;4266;48.816;9.154;2023-06-26T00:45:30;19.70;54.10
8459;DHT22;4266;48.816;9.154;2023-06-26T00:47:55;19.70;54.50
8459;DHT22;4266;48.816;9.154;2023-06-26T00:50:22;19.80;54.50
8459;DHT22;4266;48.816;9.154;2023-06-26T00:52:47;19.80;54.40
8459;DHT22;4266;48.816;9.154;2023-06-26T00:55:13;19.70;54.60
8459;DHT22;4266;48.816;9.154;2023-06-26T00:57:39;19.60;54.70
8459;DHT22;4266;48.816;9.154;2023-06-26T01:00:05;19.60;54.90
8459;DHT22;4266;48.816;9.154;2023-06-26T01:02:32;19.50;55.10
8459;DHT22;4266;48.816;9.154;2023-06-26T01:04:58;19.50;55.10
8459;DHT22;4266;48.816;9.154;2023-06-26T01:07:23;19.50;55.20
8459;DHT22;4266;48.816;9.154;2023-06-26T01:09:50;19.50;55.30
8459;DHT22;4266;48.816;9.154;2023-06-26T01:12:15;19.50;55.20
8459;DHT22;4266;48.816;9.154;2023-06-26T01:14:41;19.40;55.40
8459;DHT22;4266;48.816;9.154;2023-06-26T01:17:07;19.40;55.60
8459;DHT22;4266;48.816;9.154;2023-06-26T01:19:33;19.70;55.90
8459;DHT22;4266;48.816;9.154;2023-06-26T01:22:12;19.70;55.90
8459;DHT22;4266;48.816;9.154;2023-06-26T01:24:35;19.50;55.40
8459;DHT22;4266;48.816;9.154;2023-06-26T01:27:00;19.40;55.40
8459;DHT22;4266;48.816;9.154;2023-06-26T01:29:26;19.60;55.60
8459;DHT22;4266;48.816;9.154;2023-06-26T01:31:52;19.50;55.30
8459;DHT22;4266;48.816;9.154;2023-06-26T01:34:18;19.60;56.10
8459;DHT22;4266;48.816;9.154;2023-06-26T01:36:44;19.40;55.90
8459;DHT22;4266;48.816;9.154;2023-06-26T01:39:10;19.50;55.80
8459;DHT22;4266;48.816;9.154;2023-06-26T01:41:36;19.50;55.90
8459;DHT22;4266;48.816;9.154;2023-06-26T01:44:16;19.50;56.20
8459;DHT22;4266;48.816;9.154;2023-06-26T01:46:43;19.40;56.10
8459;DHT22;4266;48.816;9.154;2023-06-26T01:52:02;19.30;56.20
8459;DHT22;4266;48.816;9.154;2023-06-26T01:54:24;19.30;56.70
8459;DHT22;4266;48.816;9.154;2023-06-26T01:56:49;19.20;56.50
8459;DHT22;4266;48.816;9.154;2023-06-26T01:59:15;19.20;56.70
8459;DHT22;4266;48.816;9.154;2023-06-26T02:01:41;19.10;57.20
8459;DHT22;4266;48.816;9.154;2023-06-26T02:04:07;19.10;57.10
8459;DHT22;4266;48.816;9.154;2023-06-26T02:06:32;19.00;57.40
8459;DHT22;4266;48.816;9.154;2023-06-26T02:08:58;19.20;57.40
8459;DHT22;4266;48.816;9.154;2023-06-26T02:11:24;19.20;57.40
8459;DHT22;4266;48.816;9.154;2023-06-26T02:13:50;19.60;57.30
8459;DHT22;4266;48.816;9.154;2023-06-26T02:16:16;19.50;57.20
8459;DHT22;4266;48.816;9.154;2023-06-26T02:18:41;19.30;57.00
8459;DHT22;4266;48.816;9.154;2023-06-26T02:21:07;19.30;57.40
8459;DHT22;4266;48.816;9.154;2023-06-26T02:23:33;19.10;57.20
8459;DHT22;4266;48.816;9.154;2023-06-26T02:25:59;19.10;57.40
8459;DHT22;4266;48.816;9.154;2023-06-26T02:28:25;19.10;57.60
8459;DHT22;4266;48.816;9.154;2023-06-26T02:30:50;19.00;57.50
8459;DHT22;4266;48.816;9.154;2023-06-26T02:33:17;19.00;57.70
8459;DHT22;4266;48.816;9.154;2023-06-26T02:35:42;18.90;57.60
8459;DHT22;4266;48.816;9.154;2023-06-26T02:38:08;18.90;57.80
8459;DHT22;4266;48.816;9.154;2023-06-26T02:40:34;18.90;57.80
8459;DHT22;4266;48.816;9.154;2023-06-26T02:43:00;18.80;57.80
8459;DHT22;4266;48.816;9.154;2023-06-26T02:45:26;18.90;57.70
8459;DHT22;4266;48.816;9.154;2023-06-26T02:47:52;18.90;57.90
8459;DHT22;4266;48.816;9.154;2023-06-26T02:50:18;18.90;57.90
8459;DHT22;4266;48.816;9.154;2023-06-26T02:52:44;19.00;57.60
8459;DHT22;4266;48.816;9.154;2023-06-26T02:55:11;19.00;57.60
8459;DHT22;4266;48.816;9.154;2023-06-26T02:57:36;19.00;57.60
8459;DHT22;4266;48.816;9.154;2023-06-26T03:00:03;18.90;57.90
8459;DHT22;4266;48.816;9.154;2023-06-26T03:02:29;18.90;57.80
8459;DHT22;4266;48.816;9.154;2023-06-26T03:04:54;18.90;57.90
8459;DHT22;4266;48.816;9.154;2023-06-26T03:07:20;18.80;58.00
8459;DHT22;4266;48.816;9.154;2023-06-26T03:09:46;18.80;58.30
8459;DHT22;4266;48.816;9.154;2023-06-26T03:12:12;18.70;58.20
8459;DHT22;4266;48.816;9.154;2023-06-26T03:14:38;18.80;58.40
8459;DHT22;4266;48.816;9.154;2023-06-26T03:17:04;18.80;58.30
8459;DHT22;4266;48.816;9.154;2023-06-26T03:19:30;18.70;58.30
8459;DHT22;4266;48.816;9.154;2023-06-26T03:21:55;18.70;58.40
8459;DHT22;4266;48.816;9.154;2023-06-26T03:24:21;18.60;58.40
8459;DHT22;4266;48.816;9.154;2023-06-26T03:26:47;18.90;58.50
8459;DHT22;4266;48.816;9.154;2023-06-26T03:29:13;18.90;58.50
8459;DHT22;4266;48.816;9.154;2023-06-26T03:31:39;18.90;58.50
8459;DHT22;4266;48.816;9.154;2023-06-26T03:34:05;19.00;58.20
8459;DHT22;4266;48.816;9.154;2023-06-26T03:36:31;19.10;58.30
8459;DHT22;4266;48.816;9.154;2023-06-26T03:38:57;19.40;58.50
8459;DHT22;4266;48.816;9.154;2023-06-26T03:41:23;19.30;58.40
8459;DHT22;4266;48.816;9.154;2023-06-26T03:43:49;19.40;58.30
8459;DHT22;4266;48.816;9.154;2023-06-26T03:46:15;19.50;58.50
8459;DHT22;4266;48.816;9.154;2023-06-26T03:48:41;19.50;58.50
8459;DHT22;4266;48.816;9.154;2023-06-26T03:51:07;19.50;58.20
8459;DHT22;4266;48.816;9.154;2023-06-26T03:53:33;19.70;58.20
8459;DHT22;4266;48.816;9.154;2023-06-26T03:55:59;19.70;58.10
8459;DHT22;4266;48.816;9.154;2023-06-26T03:58:25;19.80;58.00
8459;DHT22;4266;48.816;9.154;2023-06-26T04:00:51;19.80;57.90
8459;DHT22;4266;48.816;9.154;2023-06-26T04:03:17;19.70;58.00
8459;DHT22;4266;48.816;9.154;2023-06-26T04:05:43;19.70;58.00
8459;DHT22;4266;48.816;9.154;2023-06-26T04:08:09;19.90;57.90
8459;DHT22;4266;48.816;9.154;2023-06-26T04:10:35;19.90;57.90
8459;DHT22;4266;48.816;9.154;2023-06-26T04:13:02;19.90;57.90
8459;DHT22;4266;48.816;9.154;2023-06-26T04:15:27;19.90;58.10
8459;DHT22;4266;48.816;9.154;2023-06-26T04:17:53;20.00;58.00
8459;DHT22;4266;48.816;9.154;2023-06-26T04:20:19;20.20;57.90
8459;DHT22;4266;48.816;9.154;2023-06-26T04:22:44;20.00;57.90
8459;DHT22;4266;48.816;9.154;2023-06-26T04:25:10;20.20;57.90
8459;DHT22;4266;48.816;9.154;2023-06-26T04:27:36;20.30;57.70
8459;DHT22;4266;48.816;9.154;2023-06-26T04:30:01;20.40;57.80
8459;DHT22;4266;48.816;9.154;2023-06-26T04:32:27;20.60;57.80
8459;DHT22;4266;48.816;9.154;2023-06-26T04:34:53;20.60;57.70
8459;DHT22;4266;48.816;9.154;2023-06-26T04:37:19;20.70;57.70
8459;DHT22;4266;48.816;9.154;2023-06-26T04:39:44;20.80;57.80
8459;DHT22;4266;48.816;9.154;2023-06-26T04:42:10;20.90;57.80
8459;DHT22;4266;48.816;9.154;2023-06-26T04:44:36;20.90;57.60
8459;DHT22;4266;48.816;9.154;2023-06-26T04:47:02;21.20;57.60
8459;DHT22;4266;48.816;9.154;2023-06-26T04:49:27;21.20;57.70
8459;DHT22;4266;48.816;9.154;2023-06-26T04:51:54;21.30;58.00
8459;DHT22;4266;48.816;9.154;2023-06-26T04:54:19;21.30;58.10
8459;DHT22;4266;48.816;9.154;2023-06-26T04:56:44;21.50;57.90
8459;DHT22;4266;48.816;9.154;2023-06-26T04:59:10;21.50;58.40
8459;DHT22;4266;48.816;9.154;2023-06-26T05:01:36;21.60;58.20
8459;DHT22;4266;48.816;9.154;2023-06-26T05:04:02;21.80;58.30
8459;DHT22;4266;48.816;9.154;2023-06-26T05:06:27;22.00;58.10
8459;DHT22;4266;48.816;9.154;2023-06-26T05:08:54;22.30;57.50
8459;DHT22;4266;48.816;9.154;2023-06-26T05:11:19;22.30;57.40
8459;DHT22;4266;48.816;9.154;2023-06-26T05:13:45;22.50;58.20
8459;DHT22;4266;48.816;9.154;2023-06-26T05:16:11;22.70;57.50
8459;DHT22;4266;48.816;9.154;2023-06-26T05:18:36;22.80;57.70
8459;DHT22;4266;48.816;9.154;2023-06-26T05:21:03;22.90;57.50
8459;DHT22;4266;48.816;9.154;2023-06-26T05:23:31;23.10;57.40
8459;DHT22;4266;48.816;9.154;2023-06-26T05:25:56;23.30;58.10
8459;DHT22;4266;48.816;9.154;2023-06-26T05:28:24;23.80;58.50
8459;DHT22;4266;48.816;9.154;2023-06-26T05:30:51;23.80;58.50
8459;DHT22;4266;48.816;9.154;2023-06-26T05:33:17;24.30;58.10
8459;DHT22;4266;48.816;9.154;2023-06-26T05:35:42;24.60;57.80
8459;DHT22;4266;48.816;9.154;2023-06-26T05:38:08;25.00;57.30
8459;DHT22;4266;48.816;9.154;2023-06-26T05:40:34;25.30;57.00
8459;DHT22;4266;48.816;9.154;2023-06-26T05:43:01;25.50;56.50
8459;DHT22;4266;48.816;9.154;2023-06-26T05:45:27;25.60;56.10
8459;DHT22;4266;48.816;9.154;2023-06-26T05:47:53;25.50;55.80
8459;DHT22;4266;48.816;9.154;2023-06-26T05:50:19;25.70;55.60
8459;DHT22;4266;48.816;9.154;2023-06-26T05:52:45;26.00;55.80
8459;DHT22;4266;48.816;9.154;2023-06-26T05:55:12;26.30;55.70
8459;DHT22;4266;48.816;9.154;2023-06-26T05:57:38;26.20;55.70
8459;DHT22;4266;48.816;9.154;2023-06-26T06:00:05;26.50;55.60
8459;DHT22;4266;48.816;9.154;2023-06-26T06:02:31;26.50;55.20
8459;DHT22;4266;48.816;9.154;2023-06-26T06:04:57;26.70;55.40
8459;DHT22;4266;48.816;9.154;2023-06-26T06:07:22;26.70;54.60
8459;DHT22;4266;48.816;9.154;2023-06-26T06:09:49;26.80;55.00
8459;DHT22;4266;48.816;9.154;2023-06-26T06:12:14;26.80;55.00
8459;DHT22;4266;48.816;9.154;2023-06-26T06:14:40;26.90;54.10
8459;DHT22;4266;48.816;9.154;2023-06-26T06:17:06;27.10;54.10
8459;DHT22;4266;48.816;9.154;2023-06-26T06:19:31;27.40;54.60
8459;DHT22;4266;48.816;9.154;2023-06-26T06:21:57;27.50;53.90
8459;DHT22;4266;48.816;9.154;2023-06-26T06:24:23;27.80;54.10
8459;DHT22;4266;48.816;9.154;2023-06-26T06:26:48;27.70;54.20
8459;DHT22;4266;48.816;9.154;2023-06-26T06:29:14;27.60;53.80
8459;DHT22;4266;48.816;9.154;2023-06-26T06:31:40;27.60;53.90
8459;DHT22;4266;48.816;9.154;2023-06-26T06:34:05;28.10;53.60
8459;DHT22;4266;48.816;9.154;2023-06-26T06:36:32;28.50;52.80
8459;DHT22;4266;48.816;9.154;2023-06-26T06:38:58;28.40;52.70
8459;DHT22;4266;48.816;9.154;2023-06-26T06:41:23;29.10;52.70
8459;DHT22;4266;48.816;9.154;2023-06-26T06:43:50;29.40;52.60
8459;DHT22;4266;48.816;9.154;2023-06-26T06:46:15;29.40;52.50
8459;DHT22;4266;48.816;9.154;2023-06-26T06:48:41;29.50;52.30
8459;DHT22;4266;48.816;9.154;2023-06-26T06:51:07;29.60;52.60
8459;DHT22;4266;48.816;9.154;2023-06-26T06:53:33;30.00;52.10
8459;DHT22;4266;48.816;9.154;2023-06-26T06:55:58;30.50;51.70
8459;DHT22;4266;48.816;9.154;2023-06-26T06:58:24;30.50;52.10
8459;DHT22;4266;48.816;9.154;2023-06-26T07:00:49;30.30;51.30
8459;DHT22;4266;48.816;9.154;2023-06-26T07:03:15;30.80;51.30
8459;DHT22;4266;48.816;9.154;2023-06-26T07:05:41;31.40;51.70
8459;DHT22;4266;48.816;9.154;2023-06-26T07:08:07;31.20;51.00
8459;DHT22;4266;48.816;9.154;2023-06-26T07:10:33;31.00;50.60
8459;DHT22;4266;48.816;9.154;2023-06-26T07:12:59;31.00;50.60
8459;DHT22;4266;48.816;9.154;2023-06-26T07:15:26;31.30;51.10
8459;DHT22;4266;48.816;9.154;2023-06-26T07:17:51;31.40;51.10
8459;DHT22;4266;48.816;9.154;2023-06-26T07:20:17;31.70;50.30
8459;DHT22;4266;48.816;9.154;2023-06-26T07:22:43;31.20;50.10
8459;DHT22;4266;48.816;9.154;2023-06-26T07:25:10;31.20;50.10
8459;DHT22;4266;48.816;9.154;2023-06-26T07:27:37;31.60;49.90
8459;DHT22;4266;48.816;9.154;2023-06-26T07:30:03;31.60;49.90
8459;DHT22;4266;48.816;9.154;2023-06-26T07:32:29;31.50;49.80
8459;DHT22;4266;48.816;9.154;2023-06-26T07:34:56;32.00;50.60
8459;DHT22;4266;48.816;9.154;2023-06-26T07:37:21;32.00;50.60
8459;DHT22;4266;48.816;9.154;2023-06-26T07:39:47;32.30;49.60
8459;DHT22;4266;48.816;9.154;2023-06-26T07:42:20;33.00;50.10
8459;DHT22;4266;48.816;9.154;2023-06-26T07:44:47;33.20;49.90
8459;DHT22;4266;48.816;9.154;2023-06-26T07:47:12;33.20;50.00
8459;DHT22;4266;48.816;9.154;2023-06-26T07:49:39;33.30;49.70
8459;DHT22;4266;48.816;9.154;2023-06-26T07:52:05;33.30;49.70
8459;DHT22;4266;48.816;9.154;2023-06-26T07:54:32;33.30;49.40
8459;DHT22;4266;48.816;9.154;2023-06-26T07:56:59;33.30;49.40
8459;DHT22;4266;48.816;9.154;2023-06-26T07:59:24;32.80;49.10
8459;DHT22;4266;48.816;9.154;2023-06-26T08:01:50;33.10;48.80
8459;DHT22;4266;48.816;9.154;2023-06-26T08:04:17;33.30;48.40
8459;DHT22;4266;48.816;9.154;2023-06-26T08:06:41;33.30;48.40
8459;DHT22;4266;48.816;9.154;2023-06-26T08:09:07;33.40;49.00
8459;DHT22;4266;48.816;9.154;2023-06-26T08:11:34;33.90;49.00
8459;DHT22;4266;48.816;9.154;2023-06-26T08:14:00;33.40;47.60
8459;DHT22;4266;48.816;9.154;2023-06-26T08:16:26;33.40;47.60
8459;DHT22;4266;48.816;9.154;2023-06-26T08:18:52;34.10;47.90
8459;DHT22;4266;48.816;9.154;2023-06-26T08:21:17;33.90;48.80
8459;DHT22;4266;48.816;9.154;2023-06-26T08:23:43;34.10;48.00
8459;DHT22;4266;48.816;9.154;2023-06-26T08:26:09;34.20;48.40
8459;DHT22;4266;48.816;9.154;2023-06-26T08:28:35;34.00;47.80
8459;DHT22;4266;48.816;9.154;2023-06-26T08:31:02;34.30;48.10
8459;DHT22;4266;48.816;9.154;2023-06-26T08:33:28;34.30;48.10
8459;DHT22;4266;48.816;9.154;2023-06-26T08:35:53;34.50;48.30
8459;DHT22;4266;48.816;9.154;2023-06-26T08:38:19;34.60;48.10
8459;DHT22;4266;48.816;9.154;2023-06-26T08:40:45;34.30;48.00
8459;DHT22;4266;48.816;9.154;2023-06-26T08:43:10;34.50;48.10
8459;DHT22;4266;48.816;9.154;2023-06-26T08:45:37;34.50;48.00
8459;DHT22;4266;48.816;9.154;2023-06-26T08:48:03;34.60;47.80
8459;DHT22;4266;48.816;9.154;2023-06-26T08:50:30;34.80;47.90
8459;DHT22;4266;48.816;9.154;2023-06-26T08:52:59;34.80;47.50
8459;DHT22;4266;48.816;9.154;2023-06-26T08:55:22;34.50;48.10
8459;DHT22;4266;48.816;9.154;2023-06-26T08:57:48;34.90;47.90
8459;DHT22;4266;48.816;9.154;2023-06-26T09:00:15;34.90;47.90
8459;DHT22;4266;48.816;9.154;2023-06-26T09:02:41;35.20;47.70
8459;DHT22;4266;48.816;9.154;2023-06-26T09:05:07;35.10;47.60
8459;DHT22;4266;48.816;9.154;2023-06-26T09:07:33;35.00;47.40
8459;DHT22;4266;48.816;9.154;2023-06-26T09:10:00;34.10;46.80
8459;DHT22;4266;48.816;9.154;2023-06-26T09:12:27;34.10;46.80
8459;DHT22;4266;48.816;9.154;2023-06-26T09:14:52;34.90;47.40
8459;DHT22;4266;48.816;9.154;2023-06-26T09:17:18;35.10;47.20
8459;DHT22;4266;48.816;9.154;2023-06-26T09:19:45;35.90;47.20
8459;DHT22;4266;48.816;9.154;2023-06-26T09:22:12;35.60;46.50
8459;DHT22;4266;48.816;9.154;2023-06-26T09:24:37;35.60;46.50
8459;DHT22;4266;48.816;9.154;2023-06-26T09:27:04;35.60;46.30
8459;DHT22;4266;48.816;9.154;2023-06-26T09:29:31;35.60;46.30
8459;DHT22;4266;48.816;9.154;2023-06-26T09:31:56;35.70;47.00
8459;DHT22;4266;48.816;9.154;2023-06-26T09:34:29;36.10;46.40
8459;DHT22;4266;48.816;9.154;2023-06-26T09:36:52;36.00;46.30
8459;DHT22;4266;48.816;9.154;2023-06-26T09:39:14;36.00;46.80
8459;DHT22;4266;48.816;9.154;2023-06-26T09:41:41;35.70;46.20
8459;DHT22;4266;48.816;9.154;2023-06-26T09:44:09;36.00;47.00
8459;DHT22;4266;48.816;9.154;2023-06-26T09:46:33;36.00;46.90
8459;DHT22;4266;48.816;9.154;2023-06-26T09:49:03;36.40;47.00
8459;DHT22;4266;48.816;9.154;2023-06-26T09:51:29;35.40;46.40
8459;DHT22;4266;48.816;9.154;2023-06-26T09:53:53;35.40;46.50
8459;DHT22;4266;48.816;9.154;2023-06-26T09:56:20;35.00;46.80
8459;DHT22;4266;48.816;9.154;2023-06-26T09:58:45;35.00;46.90
8459;DHT22;4266;48.816;9.154;2023-06-26T10:01:12;34.20;46.90
8459;DHT22;4266;48.816;9.154;2023-06-26T10:03:37;34.20;46.90
8459;DHT22;4266;48.816;9.154;2023-06-26T10:06:04;33.90;47.00
8459;DHT22;4266;48.816;9.154;2023-06-26T10:08:30;33.50;47.70
8459;DHT22;4266;48.816;9.154;2023-06-26T10:10:57;33.50;47.70
8459;DHT22;4266;48.816;9.154;2023-06-26T10:13:25;34.20;47.90
8459;DHT22;4266;48.816;9.154;2023-06-26T10:15:48;34.20;47.90
8459;DHT22;4266;48.816;9.154;2023-06-26T10:18:14;34.50;48.00
8459;DHT22;4266;48.816;9.154;2023-06-26T10:20:40;34.30;48.10
8459;DHT22;4266;48.816;9.154;2023-06-26T10:23:05;34.60;47.90
8459;DHT22;4266;48.816;9.154;2023-06-26T10:25:34;34.50;48.20
8459;DHT22;4266;48.816;9.154;2023-06-26T10:27:59;34.50;48.20
8459;DHT22;4266;48.816;9.154;2023-06-26T10:30:26;34.50;48.20
8459;DHT22;4266;48.816;9.154;2023-06-26T10:32:51;33.50;48.60
8459;DHT22;4266;48.816;9.154;2023-06-26T10:35:16;33.50;48.60
8459;DHT22;4266;48.816;9.154;2023-06-26T10:37:46;32.90;48.70
8459;DHT22;4266;48.816;9.154;2023-06-26T10:40:12;32.90;48.60
8459;DHT22;4266;48.816;9.154;2023-06-26T10:42:38;32.80;48.50
8459;DHT22;4266;48.816;9.154;2023-06-26T10:45:10;33.20;48.40
8459;DHT22;4266;48.816;9.154;2023-06-26T10:47:35;33.10;48.30
8459;DHT22;4266;48.816;9.154;2023-06-26T10:50:23;33.20;48.10
8459;DHT22;4266;48.816;9.154;2023-06-26T10:53:06;32.80;47.60
8459;DHT22;4266;48.816;9.154;2023-06-26T10:55:13;33.00;47.70
8459;DHT22;4266;48.816;9.154;2023-06-26T10:57:38;32.80;47.70
8459;DHT22;4266;48.816;9.154;2023-06-26T11:00:09;33.10;48.10
8459;DHT22;4266;48.816;9.154;2023-06-26T11:02:46;33.50;47.40
8459;DHT22;4266;48.816;9.154;2023-06-26T11:05:00;33.00;47.00
8459;DHT22;4266;48.816;9.154;2023-06-26T11:07:27;32.90;46.90
8459;DHT22;4266;48.816;9.154;2023-06-26T11:10:01;32.90;46.90
8459;DHT22;4266;48.816;9.154;2023-06-26T11:12:34;32.70;47.60
8459;DHT22;4266;48.816;9.154;2023-06-26T11:15:00;32.90;47.80
8459;DHT22;4266;48.816;9.154;2023-06-26T11:17:25;33.60;48.70
8459;DHT22;4266;48.816;9.154;2023-06-26T11:19:51;33.80;47.70
8459;DHT22;4266;48.816;9.154;2023-06-26T11:22:17;33.20;47.80
8459;DHT22;4266;48.816;9.154;2023-06-26T11:24:43;33.20;47.80
8459;DHT22;4266;48.816;9.154;2023-06-26T11:27:09;33.40;48.20
8459;DHT22;4266;48.816;9.154;2023-06-26T11:29:34;33.30;49.10
8459;DHT22;4266;48.816;9.154;2023-06-26T11:32:01;32.90;48.90
8459;DHT22;4266;48.816;9.154;2023-06-26T11:34:29;32.10;48.90
8459;DHT22;4266;48.816;9.154;2023-06-26T11:36:51;32.20;49.20
8459;DHT22;4266;48.816;9.154;2023-06-26T11:39:18;32.30;49.70
8459;DHT22;4266;48.816;9.154;2023-06-26T11:41:44;32.20;49.70
8459;DHT22;4266;48.816;9.154;2023-06-26T11:44:10;32.60;50.10
8459;DHT22;4266;48.816;9.154;2023-06-26T11:46:35;33.00;50.10
8459;DHT22;4266;48.816;9.154;2023-06-26T11:49:03;33.00;50.30
8459;DHT22;4266;48.816;9.154;2023-06-26T11:51:30;33.10;49.40
8459;DHT22;4266;48.816;9.154;2023-06-26T11:53:55;33.00;49.30
8459;DHT22;4266;48.816;9.154;2023-06-26T11:56:21;33.20;50.40
8459;DHT22;4266;48.816;9.154;2023-06-26T11:58:55;32.50;50.20
8459;DHT22;4266;48.816;9.154;2023-06-26T12:01:20;32.40;50.50
8459;DHT22;4266;48.816;9.154;2023-06-26T12:03:45;32.40;50.70
8459;DHT22;4266;48.816;9.154;2023-06-26T12:06:11;32.70;50.80
8459;DHT22;4266;48.816;9.154;2023-06-26T12:08:37;32.60;51.00
8459;DHT22;4266;48.816;9.154;2023-06-26T12:11:02;32.70;50.90
8459;DHT22;4266;48.816;9.154;2023-06-26T12:13:28;32.30;50.50
8459;DHT22;4266;48.816;9.154;2023-06-26T12:15:55;32.60;50.90
8459;DHT22;4266;48.816;9.154;2023-06-26T12:18:20;32.50;50.80
8459;DHT22;4266;48.816;9.154;2023-06-26T12:20:47;32.30;51.00
8459;DHT22;4266;48.816;9.154;2023-06-26T12:23:12;32.20;50.90
8459;DHT22;4266;48.816;9.154;2023-06-26T12:25:38;32.10;50.80
8459;DHT22;4266;48.816;9.154;2023-06-26T12:28:04;32.40;51.50
8459;DHT22;4266;48.816;9.154;2023-06-26T12:30:29;31.90;50.90
8459;DHT22;4266;48.816;9.154;2023-06-26T12:32:55;32.10;51.10
8459;DHT22;4266;48.816;9.154;2023-06-26T12:35:21;32.20;51.80
8459;DHT22;4266;48.816;9.154;2023-06-26T12:37:47;32.60;51.60
8459;DHT22;4266;48.816;9.154;2023-06-26T12:40:16;32.50;51.50
8459;DHT22;4266;48.816;9.154;2023-06-26T12:42:41;32.30;51.10
8459;DHT22;4266;48.816;9.154;2023-06-26T12:45:12;32.20;51.20
8459;DHT22;4266;48.816;9.154;2023-06-26T12:47:38;32.40;51.40
8459;DHT22;4266;48.816;9.154;2023-06-26T12:50:04;32.30;51.10
8459;DHT22;4266;48.816;9.154;2023-06-26T12:52:29;32.20;50.90
8459;DHT22;4266;48.816;9.154;2023-06-26T12:54:55;31.80;51.40
8459;DHT22;4266;48.816;9.154;2023-06-26T12:57:21;32.00;51.00
8459;DHT22;4266;48.816;9.154;2023-06-26T12:59:46;31.80;51.20
8459;DHT22;4266;48.816;9.154;2023-06-26T13:02:13;32.20;51.10
8459;DHT22;4266;48.816;9.154;2023-06-26T13:04:39;32.20;51.00
8459;DHT22;4266;48.816;9.154;2023-06-26T13:07:06;32.10;51.00
8459;DHT22;4266;48.816;9.154;2023-06-26T13:09:32;31.80;50.90
8459;DHT22;4266;48.816;9.154;2023-06-26T13:11:57;31.80;50.90
8459;DHT22;4266;48.816;9.154;2023-06-26T13:14:23;31.50;50.70
8459;DHT22;4266;48.816;9.154;2023-06-26T13:16:51;31.10;51.00
8459;DHT22;4266;48.816;9.154;2023-06-26T13:19:17;31.00;50.60
8459;DHT22;4266;48.816;9.154;2023-06-26T13:21:43;30.90;50.60
8459;DHT22;4266;48.816;9.154;2023-06-26T13:24:09;30.80;51.50
8459;DHT22;4266;48.816;9.154;2023-06-26T13:26:35;30.80;51.20
8459;DHT22;4266;48.816;9.154;2023-06-26T13:29:00;31.20;50.80
8459;DHT22;4266;48.816;9.154;2023-06-26T13:31:26;31.70;50.60
8459;DHT22;4266;48.816;9.154;2023-06-26T13:33:52;31.50;50.20
8459;DHT22;4266;48.816;9.154;2023-06-26T13:36:18;31.60;49.90
8459;DHT22;4266;48.816;9.154;2023-06-26T13:38:44;31.50;49.80
8459;DHT22;4266;48.816;9.154;2023-06-26T13:41:09;31.50;49.80
8459;DHT22;4266;48.816;9.154;2023-06-26T13:43:35;31.70;49.30
8459;DHT22;4266;48.816;9.154;2023-06-26T13:46:01;31.20;49.00
8459;DHT22;4266;48.816;9.154;2023-06-26T13:48:26;30.80;48.80
8459;DHT22;4266;48.816;9.154;2023-06-26T13:50:52;30.90;48.20
8459;DHT22;4266;48.816;9.154;2023-06-26T13:53:18;30.90;48.00
8459;DHT22;4266;48.816;9.154;2023-06-26T13:55:44;30.70;47.60
8459;DHT22;4266;48.816;9.154;2023-06-26T13:58:11;30.90;47.50
8459;DHT22;4266;48.816;9.154;2023-06-26T14:00:36;30.90;47.60
8459;DHT22;4266;48.816;9.154;2023-06-26T14:03:03;30.90;47.20
8459;DHT22;4266;48.816;9.154;2023-06-26T14:05:28;30.80;47.70
8459;DHT22;4266;48.816;9.154;2023-06-26T14:07:53;30.80;47.80
8459;DHT22;4266;48.816;9.154;2023-06-26T14:10:19;31.00;47.80
8459;DHT22;4266;48.816;9.154;2023-06-26T14:12:45;30.50;47.40
8459;DHT22;4266;48.816;9.154;2023-06-26T14:15:11;30.50;47.50
8459;DHT22;4266;48.816;9.154;2023-06-26T14:17:37;30.10;47.60
8459;DHT22;4266;48.816;9.154;2023-06-26T14:20:04;30.10;47.60
8459;DHT22;4266;48.816;9.154;2023-06-26T14:22:32;30.60;47.70
8459;DHT22;4266;48.816;9.154;2023-06-26T14:24:58;30.60;47.70
8459;DHT22;4266;48.816;9.154;2023-06-26T14:27:23;30.90;47.60
8459;DHT22;4266;48.816;9.154;2023-06-26T14:29:49;30.70;47.30
8459;DHT22;4266;48.816;9.154;2023-06-26T14:32:14;30.60;47.30
8459;DHT22;4266;48.816;9.154;2023-06-26T14:34:40;30.40;47.10
8459;DHT22;4266;48.816;9.154;2023-06-26T14:37:06;30.40;47.40
8459;DHT22;4266;48.816;9.154;2023-06-26T14:39:32;30.40;47.40
8459;DHT22;4266;48.816;9.154;2023-06-26T14:41:59;30.10;47.40
8459;DHT22;4266;48.816;9.154;2023-06-26T14:44:24;30.10;47.40
8459;DHT22;4266;48.816;9.154;2023-06-26T14:46:51;29.60;47.70
8459;DHT22;4266;48.816;9.154;2023-06-26T14:49:16;29.60;47.70
8459;DHT22;4266;48.816;9.154;2023-06-26T14:51:42;29.80;48.20
8459;DHT22;4266;48.816;9.154;2023-06-26T14:54:08;29.80;48.20
8459;DHT22;4266;48.816;9.154;2023-06-26T14:56:33;30.00;48.50
8459;DHT22;4266;48.816;9.154;2023-06-26T14:58:59;29.90;48.20
8459;DHT22;4266;48.816;9.154;2023-06-26T15:01:25;29.80;48.30
8459;DHT22;4266;48.816;9.154;2023-06-26T15:03:50;29.50;48.70
8459;DHT22;4266;48.816;9.154;2023-06-26T15:06:16;29.70;48.30
8459;DHT22;4266;48.816;9.154;2023-06-26T15:08:42;29.80;48.80
8459;DHT22;4266;48.816;9.154;2023-06-26T15:11:07;29.70;48.40
8459;DHT22;4266;48.816;9.154;2023-06-26T15:13:33;29.70;48.60
8459;DHT22;4266;48.816;9.154;2023-06-26T15:15:59;29.70;48.10
8459;DHT22;4266;48.816;9.154;2023-06-26T15:18:25;29.30;47.90
8459;DHT22;4266;48.816;9.154;2023-06-26T15:20:50;29.40;48.20
8459;DHT22;4266;48.816;9.154;2023-06-26T15:23:16;29.30;48.00
8459;DHT22;4266;48.816;9.154;2023-06-26T15:25:42;29.30;48.00
8459;DHT22;4266;48.816;9.154;2023-06-26T15:28:08;29.30;48.00
8459;DHT22;4266;48.816;9.154;2023-06-26T15:30:34;28.80;48.00
8459;DHT22;4266;48.816;9.154;2023-06-26T15:32:59;28.70;48.10
8459;DHT22;4266;48.816;9.154;2023-06-26T15:35:25;28.70;48.10
8459;DHT22;4266;48.816;9.154;2023-06-26T15:37:51;28.60;48.20
8459;DHT22;4266;48.816;9.154;2023-06-26T15:40:17;28.60;47.90
8459;DHT22;4266;48.816;9.154;2023-06-26T15:42:44;28.70;48.10
8459;DHT22;4266;48.816;9.154;2023-06-26T15:45:10;28.60;47.70
8459;DHT22;4266;48.816;9.154;2023-06-26T15:47:36;28.70;48.00
8459;DHT22;4266;48.816;9.154;2023-06-26T15:50:02;28.70;48.00
8459;DHT22;4266;48.816;9.154;2023-06-26T15:52:27;28.60;48.00
8459;DHT22;4266;48.816;9.154;2023-06-26T15:54:54;28.40;48.10
8459;DHT22;4266;48.816;9.154;2023-06-26T15:57:20;28.40;48.10